Alconbury RAF, United Kingdom

7:39 AM BST on July 27, 2016 (GMT +0100)
Alconbury Weston | | Change Station

Elev 79 ft 52.37 °N, 0.28 °W | Updated 16 seconds ago

Light Rain
Light Rain
64.0 °F
Feels Like 64.0 °F
N
0.4
Wind Variable Wind from WNW
Gusts 2.5 mph

Today
High -- | Low -- °F
--% Chance of Precip.
Yesterday
High -- | Low -- °F
Precip. -- in
Pressure 29.95 in
Visibility 6.2 miles
Clouds Mostly Cloudy 800 ft
Dew Point 63 °F
Humidity 96%
Rainfall 0.05 in
Snow Depth Not available.
5:14 AM 8:59 PM
Waning Gibbous, 46% visible
METAR EGSC 270620Z 21008KT 9999 -RA BKN008 16/15 Q1014
Pressure 29.95 in
Visibility 6.2 miles
Clouds Mostly Cloudy 800 ft
Dew Point 63 °F
Humidity 96%
Rainfall 0.05 in
Snow Depth Not available.
5:14 AM 8:59 PM
Waning Gibbous, 46% visible
METAR EGSC 270620Z 21008KT 9999 -RA BKN008 16/15 Q1014

10-Day Weather Forecast

×

Almanac

Astronomy

Jul. 27, 2016 Rise Set
Actual Time
Civil Twilight
Nautical Twilight
Astronomical Twilight
Moon
Length of Visible Light
Length of Day
Tomorrow will be .
, % of the Moon is Illuminated

Today's Extremes

Country Highs Country Lows

Community

WunderPhotos

Upload Photos

1,927,818 photos uploaded!

WunderBlog® & News

Nearby

Air Quality

  Air Quality AQ Index Pollutant
Not available.

Snow Depth

Station Depth Elevation

Earthquake Activity

City Distance Mag. Time & Date
Minimum magnitude displayed is 2.5.

Coastal Water Temperatures

Place Temperature

Stations

Nearby Weather Stations

Station Location Temp. Windchill Dew Point Humidity Wind Precip. Elev Updated Type